createdAt,value
2019-01-08T00:00:16.576Z,1012.77
2019-01-08T00:01:16.567Z,1012.81
2019-01-08T00:02:16.574Z,1012.82
2019-01-08T00:03:16.556Z,1012.72
2019-01-08T00:04:16.541Z,1012.73
2019-01-08T00:05:16.524Z,1012.75
2019-01-08T00:06:16.541Z,1012.64
2019-01-08T00:07:17.636Z,1012.73
2019-01-08T00:08:16.500Z,1012.68
2019-01-08T00:09:16.495Z,1012.66
2019-01-08T00:10:16.474Z,1012.61
2019-01-08T00:11:16.465Z,1012.68
2019-01-08T00:12:16.461Z,1012.62
2019-01-08T00:13:16.436Z,1012.66
2019-01-08T00:14:16.462Z,1012.69
2019-01-08T00:15:16.415Z,1012.63
2019-01-08T00:16:16.412Z,1012.68
2019-01-08T00:17:16.410Z,1012.65
2019-01-08T00:18:16.446Z,1012.63
2019-01-08T00:19:16.434Z,1012.61
2019-01-08T00:20:16.354Z,1012.56
2019-01-08T00:21:16.577Z,1012.57
2019-01-08T00:22:16.437Z,1012.49
2019-01-08T00:23:16.388Z,1012.47
2019-01-08T00:24:16.407Z,1012.43
2019-01-08T00:25:16.307Z,1012.43
2019-01-08T00:26:16.301Z,1012.48
2019-01-08T00:27:16.306Z,1012.42
2019-01-08T00:28:16.296Z,1012.40
2019-01-08T00:29:16.336Z,1012.31
2019-01-08T00:30:16.252Z,1012.20
2019-01-08T00:31:16.247Z,1012.18
2019-01-08T00:32:16.242Z,1012.21
2019-01-08T00:33:16.213Z,1012.20
2019-01-08T00:34:16.221Z,1012.23
2019-01-08T00:35:16.215Z,1012.28
2019-01-08T00:36:16.189Z,1012.33
2019-01-08T00:37:16.187Z,1012.33
2019-01-08T00:38:16.163Z,1012.38
2019-01-08T00:39:16.207Z,1012.32
2019-01-08T00:40:16.145Z,1012.23
2019-01-08T00:41:16.157Z,1012.19
2019-01-08T00:42:16.116Z,1012.22
2019-01-08T00:43:16.103Z,1012.22
2019-01-08T00:44:16.103Z,1012.20
2019-01-08T00:45:16.129Z,1012.20
2019-01-08T00:46:16.082Z,1012.21
2019-01-08T00:47:16.080Z,1012.20
2019-01-08T00:48:16.052Z,1012.17
2019-01-08T00:49:16.034Z,1012.09
2019-01-08T00:50:16.048Z,1012.17
2019-01-08T00:51:16.018Z,1012.15
2019-01-08T00:52:16.009Z,1012.14
2019-01-08T00:53:16.024Z,1012.05
2019-01-08T00:54:16.032Z,1012.05
2019-01-08T00:55:16.012Z,1012.05
2019-01-08T00:56:15.994Z,1012.01
2019-01-08T00:57:15.951Z,1012.00
2019-01-08T00:58:15.965Z,1011.99
2019-01-08T00:59:15.964Z,1011.96
2019-01-08T01:00:15.960Z,1011.98
2019-01-08T01:01:15.914Z,1011.95
2019-01-08T01:02:15.928Z,1012.13
2019-01-08T01:03:15.883Z,1012.30
2019-01-08T01:04:15.874Z,1012.33
2019-01-08T01:05:15.881Z,1012.34
2019-01-08T01:06:15.851Z,1012.35
2019-01-08T01:07:15.858Z,1012.44
2019-01-08T01:08:15.846Z,1012.38
2019-01-08T01:09:15.813Z,1012.36
2019-01-08T01:10:15.836Z,1012.38
2019-01-08T01:11:15.797Z,1012.40
2019-01-08T01:12:15.787Z,1012.32
2019-01-08T01:13:15.771Z,1012.31
2019-01-08T01:14:15.765Z,1012.36
2019-01-08T01:15:15.808Z,1012.37
2019-01-08T01:16:15.760Z,1012.22
2019-01-08T01:17:15.720Z,1012.19
2019-01-08T01:18:15.775Z,1012.27
2019-01-08T01:19:15.703Z,1012.27
2019-01-08T01:20:15.714Z,1012.16
2019-01-08T01:21:15.687Z,1012.25
2019-01-08T01:22:15.675Z,1012.17
2019-01-08T01:23:15.667Z,1012.25
2019-01-08T01:24:15.655Z,1012.19
2019-01-08T01:25:15.660Z,1012.15
2019-01-08T01:26:15.631Z,1012.15
2019-01-08T01:27:15.615Z,1012.13
2019-01-08T01:28:15.630Z,1012.10
2019-01-08T01:29:15.598Z,1012.16
2019-01-08T01:30:15.590Z,1012.17
2019-01-08T01:31:15.586Z,1012.18
2019-01-08T01:32:15.564Z,1012.10
2019-01-08T01:33:15.555Z,1012.12
2019-01-08T01:34:15.554Z,1012.12
2019-01-08T01:35:15.536Z,1012.15
2019-01-08T01:36:15.534Z,1012.14
2019-01-08T01:37:15.512Z,1012.16
2019-01-08T01:38:15.492Z,1012.16
2019-01-08T01:39:15.489Z,1012.15
2019-01-08T01:40:15.508Z,1012.11
2019-01-08T01:41:15.537Z,1012.11
2019-01-08T01:42:15.465Z,1012.11
2019-01-08T01:43:15.458Z,1012.14
2019-01-08T01:44:15.433Z,1012.14
2019-01-08T01:45:15.459Z,1012.20
2019-01-08T01:46:15.420Z,1012.15
2019-01-08T01:47:15.399Z,1012.17
2019-01-08T01:48:15.386Z,1012.15
2019-01-08T01:49:15.391Z,1012.21
2019-01-08T01:50:15.394Z,1012.19
2019-01-08T01:51:15.368Z,1012.19
2019-01-08T01:52:15.339Z,1012.19
2019-01-08T01:53:15.347Z,1012.23
2019-01-08T01:54:15.587Z,1012.19
2019-01-08T01:55:15.313Z,1012.15
2019-01-08T01:56:15.311Z,1012.07
2019-01-08T01:57:15.295Z,1012.10
2019-01-08T01:58:15.263Z,1012.07
2019-01-08T01:59:15.286Z,1012.02
2019-01-08T02:00:15.245Z,1012.01
2019-01-08T02:01:15.246Z,1012.01
2019-01-08T02:02:15.221Z,1012.03
2019-01-08T02:03:15.305Z,1012.05
2019-01-08T02:04:15.198Z,1012.03
2019-01-08T02:05:15.210Z,1012.03
2019-01-08T02:06:15.202Z,1012.02
2019-01-08T02:07:15.175Z,1012.09
2019-01-08T02:08:15.164Z,1012.08
2019-01-08T02:09:15.147Z,1012.08
2019-01-08T02:10:15.142Z,1012.04
2019-01-08T02:11:15.132Z,1012.10
2019-01-08T02:12:15.158Z,1012.09
2019-01-08T02:13:15.102Z,1012.09
2019-01-08T02:14:15.094Z,1012.02
2019-01-08T02:15:15.081Z,1012.08
2019-01-08T02:16:15.147Z,1012.05
2019-01-08T02:17:15.100Z,1012.06
2019-01-08T02:18:15.057Z,1012.10
2019-01-08T02:19:15.052Z,1012.09
2019-01-08T02:20:15.020Z,1012.08
2019-01-08T02:21:15.048Z,1012.12
2019-01-08T02:22:15.008Z,1012.15
2019-01-08T02:23:14.998Z,1012.11
2019-01-08T02:24:15.057Z,1012.10
2019-01-08T02:25:14.970Z,1012.15
2019-01-08T02:26:15.554Z,1012.17
2019-01-08T02:27:14.977Z,1012.13
2019-01-08T02:28:14.958Z,1012.12
2019-01-08T02:29:16.584Z,1012.13
2019-01-08T02:30:14.934Z,1012.13
2019-01-08T02:31:14.922Z,1012.10
2019-01-08T02:32:14.916Z,1012.12
2019-01-08T02:33:14.895Z,1012.13
2019-01-08T02:34:14.875Z,1012.11
2019-01-08T02:35:14.910Z,1012.12
2019-01-08T02:36:14.853Z,1012.09
2019-01-08T02:37:14.846Z,1012.15
2019-01-08T02:38:14.853Z,1012.11
2019-01-08T02:39:14.818Z,1012.09
2019-01-08T02:40:14.861Z,1012.12
2019-01-08T02:41:14.896Z,1012.11
2019-01-08T02:42:14.801Z,1012.07
2019-01-08T02:43:14.789Z,1012.08
2019-01-08T02:44:14.819Z,1012.07
2019-01-08T02:45:14.771Z,1012.11
2019-01-08T02:46:14.865Z,1012.08
2019-01-08T02:47:14.778Z,1012.05
2019-01-08T02:48:14.770Z,1012.04
2019-01-08T02:49:14.720Z,1012.11
2019-01-08T02:50:14.689Z,1012.08
2019-01-08T02:51:14.728Z,1012.06
2019-01-08T02:52:14.705Z,1012.08
2019-01-08T02:53:14.673Z,1012.08
2019-01-08T02:54:14.675Z,1012.01
2019-01-08T02:55:14.689Z,1012.07
2019-01-08T02:56:14.646Z,1012.02
2019-01-08T02:57:14.645Z,1012.00
2019-01-08T02:58:14.609Z,1011.95
2019-01-08T02:59:14.628Z,1011.87
2019-01-08T03:00:14.611Z,1011.89
2019-01-08T03:01:14.639Z,1011.84
2019-01-08T03:02:14.635Z,1011.85
2019-01-08T03:03:14.549Z,1011.86
2019-01-08T03:04:14.615Z,1011.82
2019-01-08T03:05:14.540Z,1011.78
2019-01-08T03:06:14.535Z,1011.76
2019-01-08T03:07:14.523Z,1011.80
2019-01-08T03:08:14.516Z,1011.74
2019-01-08T03:09:14.475Z,1011.79
2019-01-08T03:10:14.488Z,1011.77
2019-01-08T03:11:14.452Z,1011.71
2019-01-08T03:12:14.450Z,1011.70
2019-01-08T03:13:14.448Z,1011.73
2019-01-08T03:14:14.472Z,1011.71
2019-01-08T03:15:14.449Z,1011.74
2019-01-08T03:16:14.408Z,1011.70
2019-01-08T03:17:14.454Z,1011.73
2019-01-08T03:18:14.390Z,1011.76
2019-01-08T03:19:14.376Z,1011.73
2019-01-08T03:20:14.375Z,1011.72
2019-01-08T03:21:14.373Z,1011.70
2019-01-08T03:22:14.434Z,1011.74
2019-01-08T03:23:14.339Z,1011.71
2019-01-08T03:24:14.309Z,1011.69
2019-01-08T03:25:14.315Z,1011.66
2019-01-08T03:26:14.311Z,1011.63
2019-01-08T03:27:14.292Z,1011.59
2019-01-08T03:28:14.282Z,1011.61
2019-01-08T03:29:14.308Z,1011.58
2019-01-08T03:30:14.269Z,1011.54
2019-01-08T03:31:14.254Z,1011.51
2019-01-08T03:32:14.223Z,1011.54
2019-01-08T03:33:14.229Z,1011.51
2019-01-08T03:34:14.207Z,1011.53
2019-01-08T03:35:14.192Z,1011.52
2019-01-08T03:36:14.207Z,1011.57
2019-01-08T03:37:14.203Z,1011.53
2019-01-08T03:38:14.254Z,1011.52
2019-01-08T03:39:14.225Z,1011.54
2019-01-08T03:40:14.142Z,1011.52
2019-01-08T03:41:14.124Z,1011.49
2019-01-08T03:42:14.161Z,1011.46
2019-01-08T03:43:14.121Z,1011.45
2019-01-08T03:44:14.140Z,1011.51
2019-01-08T03:45:14.087Z,1011.50
2019-01-08T03:46:14.073Z,1011.46
2019-01-08T03:47:14.072Z,1011.46
2019-01-08T03:48:14.126Z,1011.45
2019-01-08T03:49:14.052Z,1011.42
2019-01-08T03:50:14.032Z,1011.43
2019-01-08T03:51:14.056Z,1011.44
2019-01-08T03:52:14.007Z,1011.39
2019-01-08T03:53:14.110Z,1011.37
2019-01-08T03:54:14.002Z,1011.36
2019-01-08T03:55:13.978Z,1011.32
2019-01-08T03:56:14.007Z,1011.33
2019-01-08T03:57:13.959Z,1011.28
2019-01-08T03:58:14.039Z,1011.30
2019-01-08T03:59:13.919Z,1011.29
2019-01-08T04:00:13.911Z,1011.23
2019-01-08T04:01:13.916Z,1011.22
2019-01-08T04:02:13.942Z,1011.26
2019-01-08T04:03:13.906Z,1011.27
2019-01-08T04:04:13.870Z,1011.26
2019-01-08T04:05:13.862Z,1011.25
2019-01-08T04:06:13.865Z,1011.21
2019-01-08T04:07:13.908Z,1011.27
2019-01-08T04:08:13.837Z,1011.21
2019-01-08T04:09:13.813Z,1011.22
2019-01-08T04:10:13.810Z,1011.17
2019-01-08T04:11:13.794Z,1011.15
2019-01-08T04:12:13.782Z,1011.21
2019-01-08T04:13:13.798Z,1011.19
2019-01-08T04:14:13.776Z,1011.25
2019-01-08T04:15:13.754Z,1011.23
2019-01-08T04:16:13.824Z,1011.15
2019-01-08T04:17:13.755Z,1011.16
2019-01-08T04:18:13.817Z,1011.21
2019-01-08T04:19:13.717Z,1011.20
2019-01-08T04:20:13.713Z,1011.18
2019-01-08T04:21:13.684Z,1011.12
2019-01-08T04:22:13.664Z,1011.11
2019-01-08T04:23:13.692Z,1011.14
2019-01-08T04:24:13.640Z,1011.08
2019-01-08T04:25:13.633Z,1011.08
2019-01-08T04:26:13.643Z,1011.01
2019-01-08T04:27:13.616Z,1011.06
2019-01-08T04:28:13.607Z,1011.09
2019-01-08T04:29:13.608Z,1011.00
2019-01-08T04:30:13.623Z,1010.97
2019-01-08T04:31:13.588Z,1010.98
2019-01-08T04:32:13.574Z,1010.99
2019-01-08T04:33:13.544Z,1010.94
2019-01-08T04:34:13.548Z,1010.94
2019-01-08T04:35:13.540Z,1010.88
2019-01-08T04:36:13.507Z,1010.93
2019-01-08T04:37:13.510Z,1010.91
2019-01-08T04:38:13.509Z,1010.89
2019-01-08T04:39:13.533Z,1010.84
2019-01-08T04:40:13.479Z,1010.85
2019-01-08T04:41:13.472Z,1010.91
2019-01-08T04:42:13.449Z,1010.88
2019-01-08T04:43:13.441Z,1010.86
2019-01-08T04:44:13.436Z,1010.85
2019-01-08T04:45:14.781Z,1010.86
2019-01-08T04:46:13.436Z,1010.84
2019-01-08T04:47:13.396Z,1010.81
2019-01-08T04:48:13.433Z,1010.77
2019-01-08T04:49:13.443Z,1010.84
2019-01-08T04:50:13.359Z,1010.77
2019-01-08T04:51:13.572Z,1010.82
2019-01-08T04:52:13.347Z,1010.73
2019-01-08T04:53:13.331Z,1010.68
2019-01-08T04:54:13.348Z,1010.70
2019-01-08T04:55:13.310Z,1010.67
2019-01-08T04:56:13.301Z,1010.70
2019-01-08T04:57:13.281Z,1010.67
2019-01-08T04:58:13.275Z,1010.69
2019-01-08T04:59:13.312Z,1010.67
2019-01-08T05:00:13.251Z,1010.69
2019-01-08T05:01:13.252Z,1010.61
2019-01-08T05:02:13.244Z,1010.61
2019-01-08T05:03:13.257Z,1010.57
2019-01-08T05:04:13.235Z,1010.58
2019-01-08T05:05:13.205Z,1010.62
2019-01-08T05:06:13.186Z,1010.56
2019-01-08T05:07:13.171Z,1010.55
2019-01-08T05:08:13.168Z,1010.56
2019-01-08T05:09:13.160Z,1010.58
2019-01-08T05:10:13.140Z,1010.58
2019-01-08T05:11:13.126Z,1010.46
2019-01-08T05:12:13.119Z,1010.49
2019-01-08T05:13:13.136Z,1010.52
2019-01-08T05:14:13.118Z,1010.52
2019-01-08T05:15:13.082Z,1010.43
2019-01-08T05:16:13.083Z,1010.44
2019-01-08T05:17:13.097Z,1010.41
2019-01-08T05:18:13.070Z,1010.43
2019-01-08T05:19:13.043Z,1010.44
2019-01-08T05:20:13.085Z,1010.44
2019-01-08T05:21:13.051Z,1010.48
2019-01-08T05:22:12.999Z,1010.39
2019-01-08T05:23:12.985Z,1010.43
2019-01-08T05:24:13.002Z,1010.41
2019-01-08T05:25:12.964Z,1010.39
2019-01-08T05:26:12.963Z,1010.42
2019-01-08T05:27:12.969Z,1010.47
2019-01-08T05:28:12.932Z,1010.43
2019-01-08T05:29:12.950Z,1010.37
2019-01-08T05:30:12.931Z,1010.42
2019-01-08T05:31:12.899Z,1010.35
2019-01-08T05:32:12.885Z,1010.36
2019-01-08T05:33:12.901Z,1010.34
2019-01-08T05:34:12.880Z,1010.36
2019-01-08T05:35:12.856Z,1010.33
2019-01-08T05:36:12.859Z,1010.32
2019-01-08T05:37:12.836Z,1010.29
2019-01-08T05:38:12.844Z,1010.29
2019-01-08T05:39:12.852Z,1010.26
2019-01-08T05:40:12.800Z,1010.31
2019-01-08T05:41:12.786Z,1010.19
2019-01-08T05:42:12.782Z,1010.25
2019-01-08T05:43:12.780Z,1010.29
2019-01-08T05:44:12.808Z,1010.23
2019-01-08T05:45:12.814Z,1010.16
2019-01-08T05:46:12.731Z,1010.20
2019-01-08T05:47:12.731Z,1010.11
2019-01-08T05:48:12.738Z,1010.11
2019-01-08T05:49:12.709Z,1010.10
2019-01-08T05:50:12.738Z,1010.04
2019-01-08T05:51:12.684Z,1010.10
2019-01-08T05:52:12.669Z,1010.04
2019-01-08T05:53:12.651Z,1009.94
2019-01-08T05:54:12.644Z,1010.00
2019-01-08T05:55:12.656Z,1009.98
2019-01-08T05:56:12.632Z,1010.09
2019-01-08T05:57:12.617Z,1009.96
2019-01-08T05:58:12.608Z,1009.92
2019-01-08T05:59:12.599Z,1009.97
2019-01-08T06:00:16.566Z,1009.97
2019-01-08T06:01:12.563Z,1009.90
2019-01-08T06:02:12.565Z,1009.84
2019-01-08T06:03:12.541Z,1009.95
2019-01-08T06:04:12.551Z,1009.86
2019-01-08T06:05:12.538Z,1009.88
2019-01-08T06:06:12.509Z,1009.91
2019-01-08T06:07:12.505Z,1009.92
2019-01-08T06:08:12.526Z,1009.83
2019-01-08T06:09:12.503Z,1009.76
2019-01-08T06:10:12.536Z,1009.84
2019-01-08T06:11:12.478Z,1009.75
2019-01-08T06:12:12.457Z,1009.78
2019-01-08T06:13:12.501Z,1009.80
2019-01-08T06:14:12.430Z,1009.79
2019-01-08T06:15:12.443Z,1009.75
2019-01-08T06:16:12.439Z,1009.76
2019-01-08T06:17:12.452Z,1009.71
2019-01-08T06:18:12.420Z,1009.71
2019-01-08T06:19:12.389Z,1009.68
2019-01-08T06:20:12.372Z,1009.64
2019-01-08T06:21:12.395Z,1009.69
2019-01-08T06:22:12.353Z,1009.57
2019-01-08T06:23:12.335Z,1009.63
2019-01-08T06:24:12.319Z,1009.63
2019-01-08T06:25:12.316Z,1009.63
2019-01-08T06:26:12.320Z,1009.63
2019-01-08T06:27:12.313Z,1009.65
2019-01-08T06:28:12.337Z,1009.66
2019-01-08T06:29:12.337Z,1009.63
2019-01-08T06:30:12.252Z,1009.64
2019-01-08T06:31:12.244Z,1009.61
2019-01-08T06:32:12.241Z,1009.66
2019-01-08T06:33:12.284Z,1009.59
2019-01-08T06:34:12.265Z,1009.62
2019-01-08T06:35:12.237Z,1009.56
2019-01-08T06:36:12.203Z,1009.55
2019-01-08T06:37:12.203Z,1009.52
2019-01-08T06:38:12.213Z,1009.40
2019-01-08T06:39:12.161Z,1009.42
2019-01-08T06:40:12.146Z,1009.41
2019-01-08T06:41:12.127Z,1009.40
2019-01-08T06:42:12.140Z,1009.39
2019-01-08T06:43:12.114Z,1009.40
2019-01-08T06:44:12.176Z,1009.41
2019-01-08T06:45:12.102Z,1009.37
2019-01-08T06:46:12.357Z,1009.37
2019-01-08T06:47:12.058Z,1009.45
2019-01-08T06:48:12.074Z,1009.38
2019-01-08T06:49:12.748Z,1009.35
2019-01-08T06:50:12.022Z,1009.37
2019-01-08T06:51:12.025Z,1009.45
2019-01-08T06:52:12.013Z,1009.43
2019-01-08T06:53:12.006Z,1009.40
2019-01-08T06:54:12.041Z,1009.35
2019-01-08T06:55:11.997Z,1009.47
2019-01-08T06:56:12.009Z,1009.39
2019-01-08T06:57:11.966Z,1009.24
2019-01-08T06:58:11.953Z,1009.29
2019-01-08T06:59:11.935Z,1009.31
2019-01-08T07:00:12.197Z,1009.26
2019-01-08T07:01:11.910Z,1009.27
2019-01-08T07:02:11.917Z,1009.26
2019-01-08T07:03:11.907Z,1009.27
2019-01-08T07:04:11.890Z,1009.21
2019-01-08T07:05:11.882Z,1009.33
2019-01-08T07:06:11.870Z,1009.31
2019-01-08T07:07:11.851Z,1009.29
2019-01-08T07:08:11.835Z,1009.36
2019-01-08T07:09:11.827Z,1009.31
2019-01-08T07:10:11.813Z,1009.34
2019-01-08T07:11:11.788Z,1009.27
2019-01-08T07:12:11.780Z,1009.29
2019-01-08T07:13:11.871Z,1009.27
2019-01-08T07:14:11.782Z,1009.26
2019-01-08T07:15:11.759Z,1009.22
2019-01-08T07:16:11.741Z,1009.22
2019-01-08T07:17:11.770Z,1009.25
2019-01-08T07:18:11.715Z,1009.33
2019-01-08T07:19:11.732Z,1009.28
2019-01-08T07:20:11.687Z,1009.34
2019-01-08T07:21:11.853Z,1009.32
2019-01-08T07:22:11.727Z,1009.28
2019-01-08T07:23:11.664Z,1009.29
2019-01-08T07:24:11.711Z,1009.38
2019-01-08T07:25:11.633Z,1009.28
2019-01-08T07:26:11.655Z,1009.25
2019-01-08T07:27:16.457Z,1009.28
2019-01-08T07:28:12.600Z,1009.36
2019-01-08T07:29:11.597Z,1009.31
2019-01-08T07:30:11.626Z,1009.34
2019-01-08T07:31:11.581Z,1009.42
2019-01-08T07:32:11.580Z,1009.46
2019-01-08T07:33:11.574Z,1009.41
2019-01-08T07:34:11.543Z,1009.43
2019-01-08T07:35:11.584Z,1009.46
2019-01-08T07:36:11.521Z,1009.46
2019-01-08T07:37:11.504Z,1009.39
2019-01-08T07:38:11.494Z,1009.42
2019-01-08T07:39:11.483Z,1009.34
2019-01-08T07:40:11.480Z,1009.44
2019-01-08T07:41:11.475Z,1009.43
2019-01-08T07:42:11.453Z,1009.42
2019-01-08T07:43:11.462Z,1009.30
2019-01-08T07:44:11.756Z,1009.33
2019-01-08T07:45:11.419Z,1009.32
2019-01-08T07:46:11.519Z,1009.30
2019-01-08T07:47:11.405Z,1009.40
2019-01-08T07:48:11.483Z,1009.45
2019-01-08T07:49:11.379Z,1009.49
2019-01-08T07:50:11.395Z,1009.37
2019-01-08T07:51:11.411Z,1009.31
2019-01-08T07:52:11.333Z,1009.32
2019-01-08T07:53:11.350Z,1009.37
2019-01-08T07:54:11.312Z,1009.28
2019-01-08T07:55:11.385Z,1009.30
2019-01-08T07:56:11.369Z,1009.37
2019-01-08T07:57:11.368Z,1009.28
2019-01-08T07:58:11.270Z,1009.38
2019-01-08T07:59:11.278Z,1009.28
2019-01-08T08:00:11.362Z,1009.36
2019-01-08T08:01:11.372Z,1009.40
2019-01-08T08:02:11.244Z,1009.31
2019-01-08T08:03:11.210Z,1009.38
2019-01-08T08:04:11.220Z,1009.33
2019-01-08T08:05:11.271Z,1009.36
2019-01-08T08:06:11.236Z,1009.39
2019-01-08T08:07:11.187Z,1009.47
2019-01-08T08:08:11.167Z,1009.40
2019-01-08T08:09:11.142Z,1009.43
2019-01-08T08:10:11.178Z,1009.41
2019-01-08T08:11:11.276Z,1009.38
2019-01-08T08:12:11.190Z,1009.35
2019-01-08T08:13:11.105Z,1009.34
2019-01-08T08:14:12.710Z,1009.36
2019-01-08T08:15:11.101Z,1009.36
2019-01-08T08:16:11.087Z,1009.35
2019-01-08T08:17:11.059Z,1009.41
2019-01-08T08:18:11.080Z,1009.40
2019-01-08T08:19:11.044Z,1009.36
2019-01-08T08:20:11.078Z,1009.41
2019-01-08T08:21:11.021Z,1009.39
2019-01-08T08:22:11.165Z,1009.37
2019-01-08T08:23:11.009Z,1009.42
2019-01-08T08:24:11.040Z,1009.40
2019-01-08T08:25:10.995Z,1009.37
2019-01-08T08:26:10.966Z,1009.32
2019-01-08T08:27:10.952Z,1009.37
2019-01-08T08:28:10.978Z,1009.34
2019-01-08T08:29:10.988Z,1009.35
2019-01-08T08:30:10.972Z,1009.30
2019-01-08T08:31:10.930Z,1009.33
2019-01-08T08:32:10.924Z,1009.27
2019-01-08T08:33:10.947Z,1009.25
2019-01-08T08:34:10.894Z,1009.26
2019-01-08T08:35:10.891Z,1009.36
2019-01-08T08:36:10.859Z,1009.28
2019-01-08T08:37:11.971Z,1009.35
2019-01-08T08:38:10.828Z,1009.27
2019-01-08T08:39:10.818Z,1009.30
2019-01-08T08:40:10.814Z,1009.26
2019-01-08T08:41:10.803Z,1009.34
2019-01-08T08:42:10.862Z,1009.30
2019-01-08T08:43:10.774Z,1009.25
2019-01-08T08:44:10.767Z,1009.28
2019-01-08T08:45:10.749Z,1009.26
2019-01-08T08:46:10.863Z,1009.22
2019-01-08T08:47:10.764Z,1009.22
2019-01-08T08:48:10.741Z,1009.19
2019-01-08T08:49:10.722Z,1009.13
2019-01-08T08:50:10.732Z,1009.12
2019-01-08T08:51:10.754Z,1009.24
2019-01-08T08:52:10.733Z,1009.12
2019-01-08T08:53:10.701Z,1009.12
2019-01-08T08:54:10.674Z,1009.18
2019-01-08T08:55:10.634Z,1009.11
2019-01-08T08:56:10.622Z,1009.09
2019-01-08T08:57:10.610Z,1009.06
2019-01-08T08:58:10.642Z,1009.05
2019-01-08T08:59:10.595Z,1009.02
2019-01-08T09:00:10.673Z,1009.05
2019-01-08T09:01:10.594Z,1009.07
2019-01-08T09:02:10.615Z,1009.10
2019-01-08T09:03:10.750Z,1009.02
2019-01-08T09:04:10.742Z,1009.14
2019-01-08T09:05:10.637Z,1009.09
2019-01-08T09:06:10.568Z,1009.06
2019-01-08T09:07:10.514Z,1009.04
2019-01-08T09:08:10.562Z,1009.03
2019-01-08T09:09:10.506Z,1009.00
2019-01-08T09:10:10.481Z,1009.04
2019-01-08T09:11:10.596Z,1009.01
2019-01-08T09:12:10.487Z,1009.13
2019-01-08T09:13:10.479Z,1009.04
2019-01-08T09:14:11.813Z,1008.98
2019-01-08T09:15:10.508Z,1008.99
2019-01-08T09:16:10.602Z,1008.97
2019-01-08T09:17:11.245Z,1009.04
2019-01-08T09:18:10.579Z,1009.06
2019-01-08T09:19:10.387Z,1009.09
2019-01-08T09:20:10.476Z,1009.03
2019-01-08T09:21:10.488Z,1009.07
2019-01-08T09:22:10.492Z,1009.04
2019-01-08T09:23:10.350Z,1009.04
2019-01-08T09:24:10.344Z,1009.04
2019-01-08T09:25:10.342Z,1009.06
2019-01-08T09:26:10.363Z,1008.99
2019-01-08T09:27:10.311Z,1009.11
2019-01-08T09:28:10.283Z,1009.01
2019-01-08T09:29:10.262Z,1009.14
2019-01-08T09:30:10.244Z,1009.16
2019-01-08T09:31:15.265Z,1009.05
2019-01-08T09:32:11.232Z,1008.96
2019-01-08T09:33:10.239Z,1009.04
2019-01-08T09:34:10.202Z,1009.07
2019-01-08T09:35:10.220Z,1009.02
2019-01-08T09:36:10.331Z,1009.03
2019-01-08T09:37:10.338Z,1009.00
2019-01-08T09:38:10.166Z,1009.03
2019-01-08T09:39:10.204Z,1009.08
2019-01-08T09:40:10.199Z,1009.09
2019-01-08T09:41:10.206Z,1009.04
2019-01-08T09:42:10.264Z,1009.00
2019-01-08T09:43:10.192Z,1009.01
2019-01-08T09:44:10.108Z,1009.04
2019-01-08T09:45:10.096Z,1009.00
2019-01-08T09:46:10.079Z,1009.07
2019-01-08T09:47:10.071Z,1009.00
2019-01-08T09:48:10.116Z,1009.01
2019-01-08T09:49:10.046Z,1009.03
2019-01-08T09:50:10.026Z,1009.04
2019-01-08T09:51:10.196Z,1009.04
2019-01-08T09:52:10.127Z,1008.96
2019-01-08T09:53:10.031Z,1008.92
2019-01-08T09:54:09.987Z,1008.97
2019-01-08T09:55:09.978Z,1009.00
2019-01-08T09:56:10.015Z,1008.96
2019-01-08T09:57:10.008Z,1008.98
2019-01-08T09:58:10.026Z,1009.00
2019-01-08T09:59:09.937Z,1009.04
2019-01-08T10:00:09.928Z,1009.03
2019-01-08T10:01:09.932Z,1008.98
2019-01-08T10:02:09.915Z,1008.93
2019-01-08T10:03:09.908Z,1008.94
2019-01-08T10:04:09.906Z,1009.03
2019-01-08T10:05:09.934Z,1008.95
2019-01-08T10:06:09.852Z,1008.94
2019-01-08T10:07:09.837Z,1008.95
2019-01-08T10:08:09.985Z,1008.91
2019-01-08T10:09:09.851Z,1008.87
2019-01-08T10:10:09.821Z,1008.88
2019-01-08T10:11:09.791Z,1008.92
2019-01-08T10:12:09.847Z,1008.95
2019-01-08T10:13:09.775Z,1008.91
2019-01-08T10:14:09.764Z,1008.95
2019-01-08T10:15:09.747Z,1008.99
2019-01-08T10:16:09.733Z,1008.98
2019-01-08T10:17:09.749Z,1008.99
2019-01-08T10:18:09.728Z,1008.94
2019-01-08T10:19:09.830Z,1008.88
2019-01-08T10:20:09.695Z,1008.87
2019-01-08T10:21:09.686Z,1008.90
2019-01-08T10:22:09.670Z,1008.90
2019-01-08T10:23:10.266Z,1008.92
2019-01-08T10:24:09.697Z,1008.90
2019-01-08T10:25:09.636Z,1008.89
2019-01-08T10:26:09.626Z,1008.87
2019-01-08T10:27:09.623Z,1008.82
2019-01-08T10:28:09.668Z,1008.90
2019-01-08T10:29:09.591Z,1008.84
2019-01-08T10:30:09.647Z,1008.83
2019-01-08T10:31:09.605Z,1008.85
2019-01-08T10:32:09.560Z,1008.79
2019-01-08T10:33:09.577Z,1008.81
2019-01-08T10:34:09.542Z,1008.84
2019-01-08T10:35:09.530Z,1008.81
2019-01-08T10:36:09.532Z,1008.75
2019-01-08T10:37:09.517Z,1008.72
2019-01-08T10:38:09.526Z,1008.72
2019-01-08T10:39:09.512Z,1008.58
2019-01-08T10:40:09.469Z,1008.63
2019-01-08T10:41:09.471Z,1008.64
2019-01-08T10:42:09.448Z,1008.62
2019-01-08T10:43:09.504Z,1008.71
2019-01-08T10:44:09.425Z,1008.65
2019-01-08T10:45:09.431Z,1008.65
2019-01-08T10:46:09.408Z,1008.55
2019-01-08T10:47:09.392Z,1008.59
2019-01-08T10:48:09.401Z,1008.56
2019-01-08T10:49:09.371Z,1008.56
2019-01-08T10:50:09.391Z,1008.53
2019-01-08T10:51:09.411Z,1008.58
2019-01-08T10:52:09.384Z,1008.60
2019-01-08T10:53:09.345Z,1008.56
2019-01-08T10:54:09.311Z,1008.65
2019-01-08T10:55:09.333Z,1008.54
2019-01-08T10:56:09.297Z,1008.57
2019-01-08T10:57:09.295Z,1008.61
2019-01-08T10:58:09.272Z,1008.60
2019-01-08T10:59:09.255Z,1008.64
2019-01-08T11:00:09.457Z,1008.52
2019-01-08T11:01:09.236Z,1008.55
2019-01-08T11:02:09.235Z,1008.59
2019-01-08T11:03:09.230Z,1008.63
2019-01-08T11:04:09.231Z,1008.58
2019-01-08T11:05:09.194Z,1008.63
2019-01-08T11:06:09.177Z,1008.51
2019-01-08T11:07:09.169Z,1008.50
2019-01-08T11:08:09.270Z,1008.47
2019-01-08T11:09:09.164Z,1008.40
2019-01-08T11:10:09.145Z,1008.49
2019-01-08T11:11:09.139Z,1008.43
2019-01-08T11:12:09.110Z,1008.37
2019-01-08T11:13:09.103Z,1008.44
2019-01-08T11:14:09.120Z,1008.37
2019-01-08T11:15:09.110Z,1008.38
2019-01-08T11:16:09.083Z,1008.31
2019-01-08T11:17:09.081Z,1008.33
2019-01-08T11:18:09.101Z,1008.39
2019-01-08T11:19:09.046Z,1008.25
2019-01-08T11:20:09.025Z,1008.35
2019-01-08T11:21:09.030Z,1008.36
2019-01-08T11:22:09.123Z,1008.32
2019-01-08T11:23:09.041Z,1008.28
2019-01-08T11:24:09.023Z,1008.34
2019-01-08T11:25:09.018Z,1008.28
2019-01-08T11:26:08.959Z,1008.28
2019-01-08T11:27:08.951Z,1008.26
2019-01-08T11:28:08.943Z,1008.31
2019-01-08T11:29:08.922Z,1008.28
2019-01-08T11:30:08.936Z,1008.36
2019-01-08T11:31:08.966Z,1008.32
2019-01-08T11:32:08.890Z,1008.31
2019-01-08T11:33:08.891Z,1008.30
2019-01-08T11:34:08.873Z,1008.24
2019-01-08T11:35:08.872Z,1008.28
2019-01-08T11:36:08.864Z,1008.26
2019-01-08T11:37:08.873Z,1008.24
2019-01-08T11:38:08.854Z,1008.25
2019-01-08T11:39:10.595Z,1008.27
2019-01-08T11:40:08.825Z,1008.26
2019-01-08T11:41:08.800Z,1008.27
2019-01-08T11:42:08.795Z,1008.29
2019-01-08T11:43:08.837Z,1008.25
2019-01-08T11:44:08.757Z,1008.27
2019-01-08T11:45:08.802Z,1008.21
2019-01-08T11:46:08.743Z,1008.21
2019-01-08T11:47:08.739Z,1008.21
2019-01-08T11:48:08.723Z,1008.12
2019-01-08T11:49:08.703Z,1008.09
2019-01-08T11:50:08.697Z,1008.15
2019-01-08T11:51:08.728Z,1008.15
2019-01-08T11:52:08.832Z,1008.11
2019-01-08T11:53:08.659Z,1008.11
2019-01-08T11:54:08.657Z,1008.03
2019-01-08T11:55:08.694Z,1007.99
2019-01-08T11:56:08.644Z,1007.92
2019-01-08T11:57:08.613Z,1008.00
2019-01-08T11:58:08.606Z,1007.99
2019-01-08T11:59:08.629Z,1007.98
2019-01-08T12:00:08.674Z,1008.06
2019-01-08T12:01:08.656Z,1008.00
2019-01-08T12:02:08.577Z,1008.04
2019-01-08T12:03:08.598Z,1008.06
2019-01-08T12:04:08.541Z,1008.02
2019-01-08T12:05:08.532Z,1007.92